Time;durP1;ratioP1;P1;durP2;ratioP2;P2;SDS_P1;SDS_P2;PMS_P1;PMS_P2;Temp;Humidity;BMP_temperature;BMP_pressure;BME280_temperature;BME280_humidity;BME280_pressure;Samples;Min_cycle;Max_cycle;Signal;HPM_P1;HPM_P2
2021/03/19 00:00:53;;;;;;;0.98;0.65;;;;;;;18.97;51.98;102292.00;5029522;28;20367;-75
2021/03/19 00:03:18;;;;;;;2.42;1.08;;;;;;;18.96;52.07;102290.22;5049379;28;20048;-75
2021/03/19 00:05:43;;;;;;;1.90;0.70;;;;;;;18.96;52.02;102295.47;5016636;28;20529;-75
2021/03/19 00:08:09;;;;;;;3.05;0.80;;;;;;;18.96;51.98;102301.59;5051349;28;20107;-75
2021/03/19 00:10:35;;;;;;;1.02;0.70;;;;;;;18.90;51.98;102298.91;5047179;28;20059;-75
2021/03/19 00:13:08;;;;;;;1.80;0.70;;;;;;;18.86;52.04;102297.97;5058395;28;20101;-74
2021/03/19 00:15:33;;;;;;;;;;;;;;;18.95;51.82;102310.34;5035914;28;20020;-74
2021/03/19 00:18:00;;;;;;;0.82;0.50;;;;;;;18.84;51.90;102299.66;5040293;28;19935;-74
2021/03/19 00:20:26;;;;;;;1.47;0.90;;;;;;;18.88;52.05;102309.34;5052846;28;20481;-75
2021/03/19 00:22:52;;;;;;;0.95;0.50;;;;;;;18.92;51.97;102312.91;5054175;28;20060;-75
2021/03/19 00:25:18;;;;;;;1.27;0.70;;;;;;;18.92;51.96;102312.91;5048637;28;20492;-75
2021/03/19 00:27:43;;;;;;;0.93;0.53;;;;;;;18.90;51.98;102318.13;5047344;28;20040;-75
2021/03/19 00:30:11;;;;;;;1.15;0.55;;;;;;;18.88;52.07;102322.47;5011829;28;20578;-75
2021/03/19 00:32:41;;;;;;;1.33;0.75;;;;;;;18.90;51.95;102328.63;5020699;28;20486;-75
2021/03/19 00:35:07;;;;;;;2.10;0.70;;;;;;;18.90;51.96;102332.97;5033949;28;20033;-74
2021/03/19 00:37:32;;;;;;;0.47;0.40;;;;;;;18.83;52.03;102325.84;5059866;28;20028;-75
2021/03/19 00:39:58;;;;;;;1.83;0.77;;;;;;;18.85;51.94;102327.63;5039012;28;20039;-75
2021/03/19 00:42:23;;;;;;;1.10;0.60;;;;;;;18.84;51.83;102338.97;5060207;28;20109;-75
2021/03/19 00:44:49;;;;;;;1.00;0.70;;;;;;;18.84;52.19;102346.84;5030711;28;20637;-73
2021/03/19 00:47:14;;;;;;;1.17;0.52;;;;;;;18.84;51.99;102344.22;5002378;28;20040;-72
2021/03/19 00:49:40;;;;;;;1.48;1.00;;;;;;;18.77;51.86;102342.38;5038921;28;20475;-72
2021/03/19 00:52:05;;;;;;;1.05;0.68;;;;;;;18.82;51.71;102350.31;5037387;28;20439;-72
2021/03/19 00:54:32;;;;;;;1.23;0.65;;;;;;;18.80;51.93;102350.28;5060752;28;20103;-73
2021/03/19 00:56:57;;;;;;;1.15;0.47;;;;;;;18.83;51.84;102345.06;5043995;28;20024;-72
2021/03/19 00:59:23;;;;;;;1.20;0.63;;;;;;;18.79;51.74;102345.91;5035978;28;20032;-73
2021/03/19 01:01:48;;;;;;;1.00;0.50;;;;;;;18.68;51.80;102322.97;5044796;28;20029;-72
2021/03/19 01:04:14;;;;;;;2.03;0.80;;;;;;;18.80;52.04;102349.41;5054301;28;20041;-72
2021/03/19 01:06:39;;;;;;;2.25;0.80;;;;;;;18.72;51.81;102338.75;5037780;28;20172;-72
2021/03/19 01:09:05;;;;;;;1.02;0.55;;;;;;;18.78;51.75;102349.38;5037385;28;20091;-72
2021/03/19 01:11:31;;;;;;;1.77;0.60;;;;;;;18.80;51.79;102352.91;5051315;28;20048;-72
2021/03/19 01:13:56;;;;;;;1.00;0.50;;;;;;;18.80;51.71;102346.78;5053169;28;20044;-72
2021/03/19 01:16:22;;;;;;;0.95;0.50;;;;;;;18.76;51.52;102339.72;5034592;28;20390;-73
2021/03/19 01:18:48;;;;;;;1.00;0.68;;;;;;;18.76;51.78;102353.69;5057029;28;20025;-73
2021/03/19 01:21:14;;;;;;;1.70;0.60;;;;;;;18.76;51.67;102356.31;5056055;28;20082;-73
2021/03/19 01:23:42;;;;;;;0.75;0.40;;;;;;;18.73;51.78;102356.25;5050375;28;20054;-72
2021/03/19 01:26:07;;;;;;;0.80;0.50;;;;;;;18.76;51.67;102360.69;5056923;28;20095;-72
2021/03/19 01:28:33;;;;;;;0.77;0.52;;;;;;;18.75;51.52;102359.78;5058394;28;20047;-72
2021/03/19 01:30:58;;;;;;;0.70;0.50;;;;;;;18.67;51.73;102344.78;5062225;28;20036;-72
2021/03/19 01:33:23;;;;;;;0.55;0.30;;;;;;;18.74;51.75;102357.13;5042883;28;20029;-73
2021/03/19 01:35:49;;;;;;;0.90;0.50;;;;;;;18.72;51.71;102370.22;5021615;28;20335;-72
2021/03/19 01:38:14;;;;;;;0.52;0.45;;;;;;;18.67;51.59;102356.16;5049802;28;20040;-72
2021/03/19 01:40:45;;;;;;;2.00;1.10;;;;;;;18.72;51.76;102369.31;5013263;28;20108;-72
2021/03/19 01:43:16;;;;;;;1.08;0.73;;;;;;;18.73;51.60;102371.97;5037690;28;20013;-72
2021/03/19 01:46:00;;;;;;;1.38;0.70;;;;;;;18.73;51.47;102376.34;5052301;28;20039;-72
2021/03/19 01:49:03;;;;;;;0.75;0.40;;;;;;;18.70;51.55;102377.16;5046736;28;20059;-72
2021/03/19 01:52:06;;;;;;;0.85;0.55;;;;;;;18.69;51.56;102383.28;5050579;28;20060;-73
2021/03/19 01:55:09;;;;;;;0.88;0.45;;;;;;;18.70;51.51;102390.25;5035629;28;20067;-73
2021/03/19 01:58:12;;;;;;;1.77;0.98;;;;;;;18.70;51.63;102386.75;5038517;28;20463;-72
2021/03/19 02:01:15;;;;;;;0.50;0.40;;;;;;;18.67;51.41;102385.00;5053980;28;20082;-72
2021/03/19 02:04:18;;;;;;;1.00;0.60;;;;;;;18.69;51.53;102387.63;5053573;28;20092;-72
2021/03/19 02:07:21;;;;;;;0.70;0.50;;;;;;;18.68;51.39;102386.75;5054347;28;20037;-72
2021/03/19 02:10:23;;;;;;;0.90;0.52;;;;;;;18.66;51.62;102396.31;5056115;28;20074;-72
2021/03/19 02:13:26;;;;;;;2.40;0.85;;;;;;;18.68;51.37;102396.34;5057178;28;20028;-72
2021/03/19 02:16:29;;;;;;;5.65;0.70;;;;;;;18.65;51.36;102399.78;5061391;28;20531;-72
2021/03/19 02:19:31;;;;;;;1.23;0.60;;;;;;;18.65;51.15;102399.78;5054709;28;20036;-72
2021/03/19 02:22:34;;;;;;;1.33;0.80;;;;;;;18.61;51.49;102395.34;5058658;28;20063;-73
2021/03/19 02:25:47;;;;;;;1.05;0.47;;;;;;;18.65;51.36;102396.28;5054226;28;20475;-72
2021/03/19 02:28:50;;;;;;;1.55;0.60;;;;;;;18.66;51.34;102400.69;4978584;28;20079;-74
2021/03/19 02:31:15;;;;;;;0.65;0.45;;;;;;;18.65;51.44;102396.28;5062502;28;20052;-74
2021/03/19 02:33:50;;;;;;;0.80;0.50;;;;;;;18.62;51.25;102398.84;5056856;28;20059;-74
2021/03/19 02:36:19;;;;;;;0.50;0.40;;;;;;;18.62;51.21;102404.09;5055577;28;20039;-74
2021/03/19 02:38:44;;;;;;;1.10;0.60;;;;;;;18.62;51.21;102404.97;5048794;28;20020;-74
2021/03/19 02:41:10;;;;;;;1.42;0.70;;;;;;;18.55;51.25;102403.06;5041205;28;20037;-74
2021/03/19 02:43:35;;;;;;;0.82;0.52;;;;;;;18.62;51.16;102414.56;5036265;28;20386;-74
2021/03/19 02:46:01;;;;;;;1.17;0.88;;;;;;;18.59;51.54;102411.88;5045359;28;20025;-74
2021/03/19 02:48:26;;;;;;;1.02;0.65;;;;;;;18.61;51.12;102415.41;5041258;28;20032;-74
2021/03/19 02:50:52;;;;;;;0.98;0.45;;;;;;;18.59;50.96;102415.38;5063578;28;20064;-74
2021/03/19 02:53:24;;;;;;;0.57;0.30;;;;;;;18.57;51.07;102419.66;5071997;28;20025;-74
2021/03/19 02:55:50;;;;;;;0.70;0.40;;;;;;;18.54;51.03;102419.63;5046501;28;20028;-74
2021/03/19 02:58:16;;;;;;;0.93;0.40;;;;;;;18.57;51.11;102427.53;5047158;28;20025;-74
2021/03/19 03:00:42;;;;;;;0.70;0.43;;;;;;;18.57;51.08;102430.16;5065855;28;20048;-74
2021/03/19 03:03:08;;;;;;;0.45;0.30;;;;;;;18.59;51.14;102436.34;5052880;28;20079;-74
2021/03/19 03:05:49;;;;;;;0.65;0.52;;;;;;;18.55;50.93;102435.38;5117249;27;20177;-74
2021/03/19 03:08:17;;;;;;;0.80;0.57;;;;;;;18.52;51.10;102434.44;5098608;28;20445;-74
2021/03/19 03:10:44;;;;;;;4.03;0.63;;;;;;;18.55;50.93;102439.75;5087949;28;20059;-73
2021/03/19 03:13:10;;;;;;;1.10;0.60;;;;;;;18.55;51.01;102430.16;5100278;28;20103;-72
2021/03/19 03:15:36;;;;;;;1.02;0.50;;;;;;;18.52;51.11;102440.56;5082871;28;20020;-71
2021/03/19 03:18:03;;;;;;;0.77;0.50;;;;;;;18.55;50.85;102444.97;5089051;28;20043;-72
2021/03/19 03:20:35;;;;;;;1.83;0.77;;;;;;;18.49;50.90;102439.59;5102485;28;20066;-73
2021/03/19 03:23:01;;;;;;;1.30;0.70;;;;;;;18.47;50.93;102450.03;5086326;28;20024;-72
2021/03/19 03:25:26;;;;;;;1.55;0.60;;;;;;;18.52;51.01;102450.16;5057162;28;20035;-72
2021/03/19 03:27:53;;;;;;;1.10;0.60;;;;;;;18.49;50.73;102448.34;5071969;28;20043;-72
2021/03/19 03:30:21;;;;;;;1.05;0.60;;;;;;;18.50;50.97;102450.13;5094752;28;20024;-72
2021/03/19 03:32:46;;;;;;;0.55;0.45;;;;;;;18.47;50.85;102442.19;5105474;28;20032;-72
2021/03/19 03:35:12;;;;;;;0.68;0.47;;;;;;;18.46;50.89;102442.16;5085075;28;20031;-72
2021/03/19 03:37:38;;;;;;;0.70;0.50;;;;;;;18.49;50.60;102450.97;5083685;28;20024;-74
2021/03/19 03:40:09;;;;;;;0.93;0.52;;;;;;;18.45;51.16;102448.25;5086481;28;20097;-74
2021/03/19 03:42:35;;;;;;;0.55;0.40;;;;;;;18.44;51.13;102449.09;5100126;28;20043;-73
2021/03/19 03:45:01;;;;;;;0.98;0.50;;;;;;;18.43;50.68;102452.59;5084048;28;20024;-74
2021/03/19 03:47:26;;;;;;;0.68;0.43;;;;;;;18.48;50.66;102462.28;5072806;28;20074;-73
2021/03/19 03:49:51;;;;;;;0.85;0.50;;;;;;;18.47;50.87;102463.13;5072260;28;20041;-73
2021/03/19 03:52:17;;;;;;;1.27;0.70;;;;;;;18.47;50.98;102462.25;5090194;28;20050;-74
2021/03/19 03:54:42;;;;;;;0.47;0.45;;;;;;;18.47;50.86;102471.00;5092430;28;20031;-74
2021/03/19 03:57:08;;;;;;;1.27;0.60;;;;;;;18.45;50.72;102477.06;5110421;28;20448;-74
2021/03/19 03:59:33;;;;;;;1.27;0.70;;;;;;;18.37;51.08;102461.19;5110528;28;20103;-74
2021/03/19 04:01:58;;;;;;;2.80;0.77;;;;;;;18.45;50.69;102479.66;5054218;28;20033;-74
2021/03/19 04:04:24;;;;;;;0.98;0.55;;;;;;;18.45;50.80;102471.81;5069315;28;20041;-75
2021/03/19 04:06:49;;;;;;;0.68;0.65;;;;;;;18.42;50.81;102477.00;5049362;28;20047;-74
2021/03/19 04:09:15;;;;;;;1.92;0.60;;;;;;;18.39;50.99;102472.59;5049947;28;20064;-75
2021/03/19 04:11:40;;;;;;;0.70;0.50;;;;;;;18.39;50.87;102469.09;5048329;28;20055;-73
2021/03/19 04:14:06;;;;;;;1.20;0.93;;;;;;;18.39;50.86;102479.56;5044525;28;20452;-75
2021/03/19 04:16:32;;;;;;;0.82;0.68;;;;;;;18.38;50.96;102489.16;5003955;28;20089;-74
2021/03/19 04:18:57;;;;;;;1.23;0.50;;;;;;;18.37;50.68;102489.13;4999060;28;20058;-74
2021/03/19 04:21:22;;;;;;;0.65;0.57;;;;;;;18.43;50.87;102508.47;5037676;28;20059;-74
2021/03/19 04:23:49;;;;;;;0.45;0.38;;;;;;;18.38;50.77;102496.13;5038059;28;20053;-74
2021/03/19 04:26:28;;;;;;;0.85;0.50;;;;;;;18.35;50.72;102496.94;5041040;28;20033;-72
2021/03/19 04:28:55;;;;;;;0.75;0.50;;;;;;;18.39;50.52;102511.00;5041608;28;20025;-72
2021/03/19 04:31:21;;;;;;;1.27;0.60;;;;;;;18.38;50.70;102506.59;5035540;28;20033;-72
2021/03/19 04:33:47;;;;;;;0.98;0.50;;;;;;;18.38;50.72;102515.34;5036827;28;20033;-72
2021/03/19 04:36:39;;;;;;;2.13;0.52;;;;;;;18.37;50.77;102513.56;5039014;28;20033;-73
2021/03/19 04:39:08;;;;;;;2.42;0.88;;;;;;;18.39;50.72;102511.88;5041977;28;20032;-72
2021/03/19 04:41:34;;;;;;;0.55;0.50;;;;;;;18.36;50.69;102505.69;5045961;28;20056;-73
2021/03/19 04:43:59;;;;;;;0.98;0.55;;;;;;;18.34;50.49;102497.78;5033639;28;20061;-72
2021/03/19 04:46:25;;;;;;;0.60;0.43;;;;;;;18.30;50.69;102495.09;5018191;28;20116;-72
2021/03/19 04:48:51;;;;;;;0.70;0.50;;;;;;;18.35;50.59;102502.16;5021492;28;20033;-72
2021/03/19 04:51:16;;;;;;;1.50;1.02;;;;;;;18.36;50.49;102503.06;5020499;28;20025;-72
2021/03/19 04:53:42;;;;;;;0.65;0.40;;;;;;;18.30;50.77;102500.31;5005218;28;20086;-73
2021/03/19 04:56:07;;;;;;;0.75;0.50;;;;;;;18.31;50.69;102497.72;5027428;28;20447;-72
2021/03/19 04:58:32;;;;;;;1.15;0.60;;;;;;;18.31;50.70;102508.19;5013110;28;20028;-72
2021/03/19 05:00:58;;;;;;;0.40;0.38;;;;;;;18.41;50.56;102509.28;5019489;28;20553;-72
2021/03/19 05:03:23;;;;;;;0.70;0.55;;;;;;;18.46;50.22;102516.38;5039381;28;20035;-72
2021/03/19 05:05:48;;;;;;;1.55;0.60;;;;;;;18.43;50.50;102512.84;5065077;28;20067;-72
2021/03/19 05:08:14;;;;;;;0.88;0.70;;;;;;;18.48;50.41;102529.50;5072182;28;20028;-72
2021/03/19 05:10:40;;;;;;;1.10;0.88;;;;;;;18.48;50.50;102526.91;5069899;28;20064;-72
2021/03/19 05:13:09;;;;;;;0.90;0.43;;;;;;;18.52;50.31;102529.63;5059519;28;20029;-73
2021/03/19 05:15:36;;;;;;;1.17;0.50;;;;;;;18.59;50.18;102541.13;5069576;28;20028;-73
2021/03/19 05:18:01;;;;;;;0.45;0.43;;;;;;;18.51;50.18;102524.34;5066890;28;20025;-72
2021/03/19 05:20:27;;;;;;;1.73;0.65;;;;;;;18.60;50.38;102545.53;5078668;28;20040;-72
2021/03/19 05:22:53;;;;;;;1.02;0.50;;;;;;;18.65;50.44;102543.03;5071425;28;20032;-72
2021/03/19 05:25:22;;;;;;;3.83;0.82;;;;;;;18.63;50.34;102553.47;5066639;28;20021;-72
2021/03/19 05:27:50;;;;;;;1.00;0.43;;;;;;;18.63;50.31;102550.84;5062165;28;20066;-72
2021/03/19 05:30:16;;;;;;;0.85;0.57;;;;;;;18.66;50.41;102552.66;5069248;28;20037;-72
2021/03/19 05:32:41;;;;;;;0.45;0.40;;;;;;;18.73;50.20;102558.03;5072923;28;20032;-72
2021/03/19 05:35:09;;;;;;;2.60;0.73;;;;;;;18.72;50.38;102558.91;5071961;28;20035;-73
2021/03/19 05:37:35;;;;;;;0.68;0.50;;;;;;;18.70;50.46;102555.34;5057899;28;20017;-78
2021/03/19 05:40:02;;;;;;;1.52;0.35;;;;;;;18.84;50.10;102568.75;5072379;28;20477;-78
2021/03/19 05:42:31;;;;;;;1.13;0.50;;;;;;;18.81;49.97;102566.97;5059767;28;20032;-72
2021/03/19 05:45:19;;;;;;;1.15;0.73;;;;;;;18.81;50.21;102577.47;5066483;28;20107;-72
2021/03/19 05:47:45;;;;;;;0.70;0.47;;;;;;;18.83;50.07;102575.72;5063335;28;20029;-73
2021/03/19 05:50:23;;;;;;;0.65;0.47;;;;;;;18.88;49.88;102579.34;5053817;28;20475;-75
2021/03/19 05:52:49;;;;;;;1.27;0.60;;;;;;;18.90;50.08;102585.50;5056901;28;20051;-76
2021/03/19 05:55:19;;;;;;;0.70;0.50;;;;;;;18.89;49.86;102593.34;5067251;28;20021;-75
2021/03/19 05:57:45;;;;;;;2.22;0.63;;;;;;;18.90;49.88;102579.38;5062577;28;20039;-78
2021/03/19 06:00:22;;;;;;;2.00;0.47;;;;;;;18.91;49.84;102571.56;5045411;28;20505;-75
2021/03/19 06:02:48;;;;;;;1.10;0.85;;;;;;;18.96;50.08;102589.09;5073615;28;20033;-76
2021/03/19 06:05:23;;;;;;;1.08;0.35;;;;;;;18.97;50.02;102598.72;5055727;28;20080;-75
2021/03/19 06:07:51;;;;;;;2.35;0.75;;;;;;;19.00;49.85;102597.06;5038210;28;20108;-72
2021/03/19 06:10:22;;;;;;;2.70;0.70;;;;;;;19.00;49.83;102601.41;5026589;28;20024;-75
2021/03/19 06:13:11;;;;;;;1.08;0.40;;;;;;;19.03;49.89;102609.34;5036414;28;20032;-73
2021/03/19 06:15:42;;;;;;;0.93;0.73;;;;;;;18.95;49.98;102603.09;5037294;28;20106;-72
2021/03/19 06:18:20;;;;;;;2.03;0.50;;;;;;;18.76;49.98;102571.22;5049361;28;20028;-72
2021/03/19 06:20:52;;;;;;;1.58;0.65;;;;;;;18.85;49.87;102584.50;5028822;28;20029;-72
2021/03/19 06:23:21;;;;;;;1.33;0.60;;;;;;;19.01;49.71;102606.69;5035289;28;20039;-74
2021/03/19 06:26:06;;;;;;;0.95;0.52;;;;;;;19.00;49.54;102609.28;5050588;28;20037;-75
2021/03/19 06:28:33;;;;;;;4.32;1.27;;;;;;;18.98;49.34;102610.97;5054200;28;20059;-72
2021/03/19 06:31:22;;;;;;;4.88;2.13;;;;;;;19.03;49.44;102611.97;5043291;28;20094;-75
2021/03/19 06:34:03;;;;;;;3.03;1.08;;;;;;;18.99;49.47;102607.50;5035042;28;20029;-75
2021/03/19 06:36:30;;;;;;;5.55;1.73;;;;;;;18.97;49.06;102614.44;5045068;28;20025;-75
2021/03/19 06:39:04;;;;;;;5.95;1.88;;;;;;;18.97;48.93;102623.22;5057045;28;20021;-75
2021/03/19 06:41:33;;;;;;;5.53;2.05;;;;;;;18.78;49.06;102587.88;5038188;28;20509;-75
2021/03/19 06:44:17;;;;;;;5.00;2.00;;;;;;;18.98;49.03;102621.47;5039762;28;20041;-75
2021/03/19 06:46:52;;;;;;;7.15;2.15;;;;;;;18.94;49.31;102614.41;5027500;28;20376;-74
2021/03/19 06:49:20;;;;;;;7.28;2.67;;;;;;;18.97;49.15;102614.44;5043901;28;20035;-74
2021/03/19 06:51:51;;;;;;;3.83;1.83;;;;;;;18.95;49.02;102619.69;5056590;28;20112;-74
2021/03/19 06:54:47;;;;;;;4.95;1.88;;;;;;;18.95;49.42;102627.56;5035182;28;20028;-75
2021/03/19 06:57:18;;;;;;;5.20;2.25;;;;;;;19.01;49.14;102638.16;5027793;28;20543;-76
2021/03/19 06:59:45;;;;;;;6.18;2.35;;;;;;;19.03;49.16;102639.09;5026293;28;20029;-77
2021/03/19 07:02:20;;;;;;;6.82;2.53;;;;;;;19.01;49.17;102640.78;5016353;28;20123;-76
2021/03/19 07:04:48;;;;;;;4.82;2.03;;;;;;;19.04;49.19;102642.59;5041751;28;20045;-75
2021/03/19 07:07:35;;;;;;;2.92;1.80;;;;;;;19.05;49.15;102637.38;5041930;28;20040;-75
2021/03/19 07:10:00;;;;;;;2.88;1.58;;;;;;;19.05;48.97;102632.13;5063000;28;20390;-75
2021/03/19 07:12:47;;;;;;;6.97;2.22;;;;;;;19.05;49.43;102634.75;5051286;28;20025;-75
2021/03/19 07:15:12;;;;;;;2.08;1.50;;;;;;;19.09;49.20;102639.19;5042754;28;20122;-75
2021/03/19 07:17:44;;;;;;;5.30;1.58;;;;;;;19.09;49.22;102636.56;5050597;28;20068;-75
2021/03/19 07:20:31;;;;;;;2.40;1.35;;;;;;;19.09;49.38;102647.06;5042121;28;20025;-76
2021/03/19 07:23:09;;;;;;;6.13;2.13;;;;;;;19.13;49.31;102648.91;5062980;28;20496;-75
2021/03/19 07:25:35;;;;;;;2.65;1.70;;;;;;;19.15;49.29;102662.06;5039702;28;20021;-75
2021/03/19 07:28:15;;;;;;;4.10;1.95;;;;;;;19.17;49.15;102673.47;5050257;28;20490;-75
2021/03/19 07:30:50;;;;;;;5.57;1.88;;;;;;;19.15;49.23;102660.31;5042081;28;20032;-75
2021/03/19 07:33:41;;;;;;;2.83;1.77;;;;;;;19.26;48.98;102668.41;5057721;28;20486;-75
2021/03/19 07:36:21;;;;;;;5.47;1.60;;;;;;;19.30;48.97;102669.38;5055758;28;20028;-75
2021/03/19 07:39:17;;;;;;;4.53;1.88;;;;;;;19.32;48.86;102670.28;5065796;28;20031;-75
2021/03/19 07:41:48;;;;;;;6.40;1.77;;;;;;;19.42;48.71;102670.50;5084953;28;20021;-72
2021/03/19 07:44:47;;;;;;;3.45;1.13;;;;;;;19.48;48.63;102677.59;5059077;28;20087;-76
2021/03/19 07:47:34;;;;;;;2.13;1.25;;;;;;;19.47;48.65;102681.09;5054820;28;20017;-73
2021/03/19 07:50:36;;;;;;;2.72;1.65;;;;;;;19.44;48.88;102674.03;5054528;28;20025;-73
2021/03/19 07:53:09;;;;;;;2.85;1.40;;;;;;;19.48;48.84;102678.47;5042973;28;20025;-73
2021/03/19 07:55:45;;;;;;;5.63;2.33;;;;;;;19.44;49.00;102684.53;5071175;28;20020;-73
2021/03/19 07:58:35;;;;;;;2.47;1.25;;;;;;;19.47;49.02;102694.22;5061254;28;20394;-73
2021/03/19 08:01:05;;;;;;;4.18;1.30;;;;;;;19.48;48.92;102699.47;5051276;28;20082;-73
2021/03/19 08:03:32;;;;;;;4.75;1.92;;;;;;;19.47;48.71;102697.72;5043362;28;20460;-73
2021/03/19 08:06:01;;;;;;;2.38;1.30;;;;;;;19.43;48.75;102700.25;5022917;28;20403;-73
2021/03/19 08:08:34;;;;;;;3.03;1.52;;;;;;;19.52;49.27;102709.22;5020166;28;20079;-73
2021/03/19 08:11:14;;;;;;;2.88;1.27;;;;;;;19.55;48.80;102711.91;5031498;28;20025;-72
2021/03/19 08:13:56;;;;;;;2.40;1.10;;;;;;;19.49;49.00;102709.13;5034755;28;20095;-73
2021/03/19 08:16:46;;;;;;;2.75;0.85;;;;;;;19.60;48.83;102712.00;5016836;28;20017;-73
2021/03/19 08:19:44;;;;;;;2.45;1.40;;;;;;;19.62;48.64;102718.16;5013677;28;20506;-72
2021/03/19 08:22:16;;;;;;;3.08;1.25;;;;;;;19.63;48.71;102712.03;5014160;28;20095;-73
2021/03/19 08:25:01;;;;;;;2.97;1.67;;;;;;;19.65;48.54;102706.84;5028216;28;20087;-73
2021/03/19 08:27:47;;;;;;;2.85;1.30;;;;;;;19.68;48.56;102712.16;5026659;28;20032;-73
2021/03/19 08:30:13;;;;;;;2.35;1.20;;;;;;;19.67;48.76;102713.88;5019479;28;20216;-73
2021/03/19 08:33:00;;;;;;;1.83;0.98;;;;;;;19.62;48.61;102716.41;5018760;28;20029;-73
2021/03/19 08:35:35;;;;;;;1.38;0.80;;;;;;;19.57;48.60;102711.94;5031102;28;20026;-73
2021/03/19 08:38:10;;;;;;;2.30;1.00;;;;;;;19.56;48.86;102726.81;5014199;28;20037;-73
2021/03/19 08:40:47;;;;;;;2.00;1.55;;;;;;;19.50;48.73;102713.53;5034664;28;20025;-73
2021/03/19 08:43:40;;;;;;;1.58;0.90;;;;;;;19.52;48.63;102729.31;5034515;28;20372;-73
2021/03/19 08:46:14;;;;;;;2.25;1.10;;;;;;;19.49;48.94;102726.63;5003219;28;20034;-73
2021/03/19 08:48:53;;;;;;;1.95;0.90;;;;;;;19.47;48.77;102729.22;5016438;28;20034;-73
2021/03/19 08:51:36;;;;;;;2.25;1.33;;;;;;;19.41;48.96;102729.06;5000906;28;20122;-73
2021/03/19 08:54:17;;;;;;;1.38;1.00;;;;;;;19.44;48.85;102737.00;5023731;28;20036;-73
2021/03/19 08:56:46;;;;;;;1.95;0.93;;;;;;;19.45;48.65;102744.03;5020684;28;20018;-73
2021/03/19 08:59:32;;;;;;;3.13;1.25;;;;;;;19.44;48.87;102749.25;5004998;28;20018;-73
2021/03/19 09:01:59;;;;;;;2.05;1.10;;;;;;;19.32;48.79;102738.50;5021636;28;20125;-73
2021/03/19 09:04:53;;;;;;;2.80;1.42;;;;;;;19.42;48.93;102757.06;5035198;28;20381;-73
2021/03/19 09:07:58;;;;;;;2.10;0.88;;;;;;;19.39;48.76;102750.88;5023884;28;20395;-73
2021/03/19 09:10:25;;;;;;;1.73;1.10;;;;;;;19.42;48.82;102761.44;5039064;28;20052;-73
2021/03/19 09:12:56;;;;;;;1.90;0.90;;;;;;;19.40;48.68;102765.75;5033592;28;20033;-73
2021/03/19 09:15:22;;;;;;;2.25;1.38;;;;;;;19.41;48.91;102771.03;5015399;28;20472;-73
2021/03/19 09:17:56;;;;;;;2.92;1.30;;;;;;;19.38;48.87;102767.47;5014584;28;20033;-73
2021/03/19 09:20:37;;;;;;;2.08;1.00;;;;;;;19.34;49.11;102769.16;5013840;28;20063;-73
2021/03/19 09:23:09;;;;;;;3.80;1.00;;;;;;;19.36;48.98;102771.78;5009597;28;20033;-73
2021/03/19 09:25:42;;;;;;;2.38;1.05;;;;;;;19.37;48.84;102770.94;5022023;28;20558;-73
2021/03/19 09:28:07;;;;;;;4.50;1.20;;;;;;;19.38;48.70;102765.72;5001106;28;20030;-73
2021/03/19 09:30:41;;;;;;;3.95;1.00;;;;;;;19.28;48.88;102771.63;5013787;28;20051;-73
2021/03/19 09:33:12;;;;;;;3.88;1.20;;;;;;;19.28;48.97;102780.38;5003528;28;20084;-73
2021/03/19 09:35:43;;;;;;;2.85;1.25;;;;;;;19.25;48.95;102785.56;5009556;28;20018;-73
2021/03/19 09:38:24;;;;;;;1.98;0.70;;;;;;;19.30;49.25;102779.53;5033440;28;20117;-73
2021/03/19 09:40:52;;;;;;;2.25;1.00;;;;;;;19.31;49.01;102787.44;5025443;28;20095;-73
2021/03/19 09:43:46;;;;;;;2.28;0.90;;;;;;;19.31;48.78;102784.81;5012624;28;20034;-73
2021/03/19 09:46:20;;;;;;;1.63;1.00;;;;;;;19.32;48.79;102788.34;4987294;28;20140;-73
2021/03/19 09:49:23;;;;;;;1.85;1.00;;;;;;;19.31;48.68;102787.44;5007988;28;20029;-73
2021/03/19 09:51:48;;;;;;;2.70;1.17;;;;;;;19.28;48.86;102783.00;5008038;28;20510;-73
2021/03/19 09:54:29;;;;;;;2.13;1.23;;;;;;;19.28;48.73;102796.13;5014407;28;20029;-73
2021/03/19 09:57:00;;;;;;;1.52;0.90;;;;;;;19.28;48.60;102785.63;5015739;28;20030;-73
2021/03/19 09:59:33;;;;;;;2.65;1.00;;;;;;;19.27;48.76;102798.72;5023174;28;20025;-73
2021/03/19 10:01:58;;;;;;;1.52;1.10;;;;;;;19.16;48.94;102779.22;5033827;28;20496;-73
2021/03/19 10:04:32;;;;;;;2.00;1.00;;;;;;;19.25;48.86;102800.41;5023954;28;20046;-73
2021/03/19 10:06:59;;;;;;;1.77;0.90;;;;;;;19.25;48.72;102800.41;5009307;28;20037;-73
2021/03/19 10:09:40;;;;;;;1.50;1.02;;;;;;;19.23;48.76;102800.38;5021805;28;20037;-73
2021/03/19 10:12:19;;;;;;;1.23;0.80;;;;;;;19.23;48.76;102813.47;5019062;28;20018;-73
2021/03/19 10:14:51;;;;;;;1.85;0.90;;;;;;;19.18;48.89;102807.25;5000675;28;20422;-73
2021/03/19 10:17:28;;;;;;;1.30;0.80;;;;;;;19.21;48.87;102811.69;5006984;28;20033;-73
2021/03/19 10:20:11;;;;;;;2.72;0.90;;;;;;;19.20;48.61;102805.56;5031992;28;20086;-73
2021/03/19 10:22:51;;;;;;;1.83;0.90;;;;;;;19.21;48.86;102814.31;5030009;28;20025;-73
2021/03/19 10:25:23;;;;;;;1.13;0.60;;;;;;;19.19;48.91;102814.28;5026023;28;20444;-73
2021/03/19 10:27:52;;;;;;;1.33;0.80;;;;;;;19.16;48.95;102814.22;5026460;28;20068;-73
2021/03/19 10:30:29;;;;;;;1.98;0.80;;;;;;;19.14;48.80;102805.41;5031129;28;20479;-73
2021/03/19 10:33:03;;;;;;;1.83;0.82;;;;;;;19.16;48.94;102811.59;5013711;28;20084;-73
2021/03/19 10:35:36;;;;;;;1.00;0.80;;;;;;;19.14;48.75;102815.91;5033971;28;20079;-73
2021/03/19 10:38:16;;;;;;;1.10;0.63;;;;;;;19.13;48.99;102818.47;5022937;28;20056;-73
2021/03/19 10:40:45;;;;;;;1.20;0.80;;;;;;;19.08;48.89;102802.66;5017427;28;20033;-73
2021/03/19 10:43:24;;;;;;;0.98;0.88;;;;;;;19.11;48.72;102807.94;4998625;28;20109;-73
2021/03/19 10:45:58;;;;;;;2.35;1.42;;;;;;;19.08;48.75;102799.16;5005079;28;20438;-73
2021/03/19 10:48:36;;;;;;;1.98;0.95;;;;;;;19.10;48.73;102813.16;4998141;28;20022;-73
2021/03/19 10:51:39;;;;;;;1.13;0.73;;;;;;;19.11;49.01;102809.69;5022236;28;20039;-73
2021/03/19 10:54:13;;;;;;;1.50;1.02;;;;;;;19.12;48.88;102817.59;5018196;28;20021;-74
2021/03/19 10:56:57;;;;;;;1.45;0.68;;;;;;;19.05;48.85;102804.31;5014449;28;20391;-73
2021/03/19 10:59:25;;;;;;;1.13;0.60;;;;;;;19.11;48.63;102813.19;5024532;28;20535;-73
2021/03/19 11:01:51;;;;;;;1.50;1.10;;;;;;;19.10;48.85;102814.03;5023923;28;20029;-73
2021/03/19 11:04:33;;;;;;;2.95;1.00;;;;;;;19.11;48.78;102820.19;5024452;28;20040;-73
2021/03/19 11:07:19;;;;;;;1.60;0.85;;;;;;;19.01;48.68;102807.69;5018717;28;20037;-73
2021/03/19 11:10:10;;;;;;;2.00;1.05;;;;;;;19.10;48.88;102828.88;4990860;28;20054;-73
2021/03/19 11:12:51;;;;;;;2.15;1.08;;;;;;;19.07;48.95;102829.72;4997191;28;20022;-73
2021/03/19 11:15:29;;;;;;;1.13;0.65;;;;;;;19.11;48.90;102833.28;5018081;28;20665;-73
2021/03/19 11:18:19;;;;;;;2.85;1.48;;;;;;;19.11;48.77;102834.19;5021120;28;20040;-73
2021/03/19 11:20:55;;;;;;;1.00;0.85;;;;;;;19.10;48.94;102836.75;5010363;28;20025;-73
2021/03/19 11:23:34;;;;;;;2.00;1.10;;;;;;;19.13;48.59;102837.72;5007002;28;20040;-76
2021/03/19 11:26:01;;;;;;;3.00;0.90;;;;;;;19.11;48.66;102842.03;5006406;28;20021;-75
2021/03/19 11:28:46;;;;;;;1.35;0.70;;;;;;;19.08;48.88;102831.50;5053486;28;20032;-72
2021/03/19 11:31:21;;;;;;;1.50;0.90;;;;;;;19.21;48.88;102845.78;5023598;28;20033;-71
2021/03/19 11:33:55;;;;;;;2.38;0.65;;;;;;;19.34;48.99;102839.09;5027968;28;20503;-72
2021/03/19 11:36:22;;;;;;;1.42;1.02;;;;;;;19.28;48.86;102824.09;5000226;28;20092;-72
2021/03/19 11:38:48;;;;;;;3.08;1.05;;;;;;;19.35;48.85;102841.72;4983089;28;20029;-72
2021/03/19 11:41:40;;;;;;;2.92;0.85;;;;;;;19.40;48.93;102837.50;5016580;28;20026;-73
2021/03/19 11:44:06;;;;;;;0.93;0.73;;;;;;;19.45;48.77;102841.13;5014921;28;20129;-73
2021/03/19 11:46:32;;;;;;;1.60;0.95;;;;;;;19.47;48.71;102843.78;5014073;28;20109;-73
2021/03/19 11:48:58;;;;;;;1.08;0.60;;;;;;;19.45;48.83;102841.13;5011567;28;20034;-73
2021/03/19 11:51:30;;;;;;;0.98;0.75;;;;;;;19.56;48.54;102859.75;5016555;28;20466;-73
2021/03/19 11:53:58;;;;;;;1.95;0.80;;;;;;;19.55;48.96;102857.97;5017563;28;20057;-73